Time;durP1;ratioP1;P1;durP2;ratioP2;P2;SDS_P1;SDS_P2;PMS_P1;PMS_P2;Temp;Humidity;BMP_temperature;BMP_pressure;BME280_temperature;BME280_humidity;BME280_pressure;Samples;Min_cycle;Max_cycle;Signal;HPM_P1;HPM_P2
2022/06/14 00:01:20;;;;;;;2.35;0.60;;;15.10;85.60;;;;;;5007451;28;20099;-78
2022/06/14 00:03:45;;;;;;;2.20;1.02;;;15.10;85.60;;;;;;5002540;28;20022;-78
2022/06/14 00:06:23;;;;;;;2.20;0.70;;;15.10;86.20;;;;;;5008378;28;20474;-81
2022/06/14 00:08:49;;;;;;;2.72;0.70;;;15.00;86.60;;;;;;5014311;28;20033;-79
2022/06/14 00:11:16;;;;;;;3.03;0.77;;;14.90;86.90;;;;;;5018574;28;20105;-79
2022/06/14 00:13:43;;;;;;;1.98;0.40;;;14.90;87.50;;;;;;5010762;28;20033;-81
2022/06/14 00:16:09;;;;;;;2.60;0.68;;;14.80;87.90;;;;;;5017240;28;20068;-80
2022/06/14 00:18:35;;;;;;;3.90;0.88;;;14.80;88.20;;;;;;5032099;28;20087;-79
2022/06/14 00:21:01;;;;;;;2.03;0.50;;;14.70;88.30;;;;;;5013342;28;20497;-79
2022/06/14 00:23:27;;;;;;;2.03;0.57;;;14.70;88.50;;;;;;5013178;28;20033;-79
2022/06/14 00:25:55;;;;;;;4.15;0.75;;;14.70;88.60;;;;;;5011324;28;20413;-79
2022/06/14 00:28:22;;;;;;;4.30;0.70;;;14.70;88.90;;;;;;5013592;28;20030;-80
2022/06/14 00:30:51;;;;;;;2.38;0.65;;;14.70;89.20;;;;;;5013503;28;20042;-79
2022/06/14 00:33:17;;;;;;;1.98;0.65;;;14.70;89.30;;;;;;5011738;28;20040;-79
2022/06/14 00:35:42;;;;;;;1.75;0.80;;;14.60;89.50;;;;;;5010206;28;20026;-80
2022/06/14 00:38:10;;;;;;;1.77;0.70;;;14.60;89.60;;;;;;5008521;28;20416;-77
2022/06/14 00:40:37;;;;;;;2.17;0.82;;;14.60;89.80;;;;;;5005401;28;20044;-79
2022/06/14 00:43:11;;;;;;;2.17;0.95;;;14.60;89.80;;;;;;5012104;28;20040;-79
2022/06/14 00:45:36;;;;;;;1.13;0.82;;;14.50;90.00;;;;;;5008417;28;20037;-77
2022/06/14 00:48:05;;;;;;;1.73;1.00;;;14.50;90.00;;;;;;5011748;28;20042;-78
2022/06/14 00:50:40;;;;;;;1.95;1.23;;;14.40;90.00;;;;;;5013092;28;20554;-79
2022/06/14 00:53:09;;;;;;;3.83;0.68;;;14.40;90.20;;;;;;5018308;28;20030;-80
2022/06/14 00:55:50;;;;;;;2.30;0.73;;;14.40;90.20;;;;;;5011356;28;20049;-78
2022/06/14 00:58:38;;;;;;;2.70;0.60;;;14.40;90.20;;;;;;5010593;28;20498;-78
2022/06/14 01:01:14;;;;;;;3.63;1.15;;;14.40;90.30;;;;;;5013462;28;20549;-77
2022/06/14 01:03:50;;;;;;;3.30;0.60;;;14.30;90.30;;;;;;5009450;28;20118;-79
2022/06/14 01:06:24;;;;;;;1.45;0.82;;;14.30;90.50;;;;;;5024555;28;20045;-78
2022/06/14 01:08:56;;;;;;;1.30;0.70;;;14.30;90.30;;;;;;5011983;28;20111;-78
2022/06/14 01:11:38;;;;;;;1.70;0.73;;;14.30;90.40;;;;;;5007406;28;20445;-79
2022/06/14 01:14:06;;;;;;;4.85;1.02;;;14.30;90.40;;;;;;5009815;28;20041;-80
2022/06/14 01:16:34;;;;;;;1.00;0.65;;;14.30;90.50;;;;;;5010550;28;20026;-79
2022/06/14 01:18:59;;;;;;;8.05;0.88;;;14.30;90.60;;;;;;5005289;28;20041;-77
2022/06/14 01:21:25;;;;;;;3.45;0.95;;;14.30;90.60;;;;;;5010949;28;20091;-78
2022/06/14 01:23:52;;;;;;;3.10;0.68;;;14.30;90.70;;;;;;5010714;28;20493;-78
2022/06/14 01:26:23;;;;;;;2.15;0.60;;;14.20;90.60;;;;;;5010315;28;20592;-79
2022/06/14 01:28:56;;;;;;;2.63;1.03;;;14.20;90.90;;;;;;5009638;28;20072;-79
2022/06/14 01:31:23;;;;;;;;;;;14.20;91.00;;;;;;5010456;28;20498;-80
2022/06/14 01:33:54;;;;;;;2.20;0.82;;;14.20;91.00;;;;;;5008334;28;20289;-79
2022/06/14 01:36:31;;;;;;;3.70;0.80;;;14.20;91.30;;;;;;5024935;28;20030;-81
2022/06/14 01:39:00;;;;;;;3.17;0.90;;;14.10;91.50;;;;;;5010650;28;20631;-78
2022/06/14 01:42:00;;;;;;;1.67;0.88;;;14.10;91.70;;;;;;5009851;28;20793;-77
2022/06/14 01:44:53;;;;;;;2.10;1.00;;;14.10;91.80;;;;;;5009848;28;20036;-79
2022/06/14 01:47:30;;;;;;;1.08;0.60;;;14.10;91.90;;;;;;5003150;28;20467;-78
2022/06/14 01:53:26;;;;;;;2.97;1.10;;;14.00;92.10;;;;;;5011504;28;20545;-79
2022/06/14 01:56:20;;;;;;;0.85;0.70;;;14.00;92.20;;;;;;5007266;28;20048;-79
2022/06/14 01:58:54;;;;;;;2.08;1.00;;;14.00;92.20;;;;;;5005331;28;20030;-81
2022/06/14 02:01:44;;;;;;;1.25;0.75;;;14.00;92.30;;;;;;5008915;28;20038;-79
2022/06/14 02:04:37;;;;;;;2.50;1.00;;;14.00;92.50;;;;;;5006273;28;20026;-80
2022/06/14 02:07:25;;;;;;;;;;;13.90;92.60;;;;;;5009770;28;20117;-79
2022/06/14 02:10:11;;;;;;;3.38;0.90;;;13.90;92.70;;;;;;5011684;28;19952;-81
2022/06/14 02:13:15;;;;;;;3.92;0.70;;;13.90;93.00;;;;;;5011054;28;20056;-79
2022/06/14 02:16:15;;;;;;;2.53;0.90;;;13.80;93.10;;;;;;5010871;28;20105;-80
2022/06/14 02:18:59;;;;;;;6.00;1.45;;;13.80;93.20;;;;;;5010761;28;20041;-77
2022/06/14 02:21:49;;;;;;;3.42;1.23;;;13.70;93.40;;;;;;4991830;28;20085;-79
2022/06/14 02:24:23;;;;;;;3.10;1.00;;;13.70;93.40;;;;;;5007664;28;20465;-78
2022/06/14 02:26:55;;;;;;;1.70;1.45;;;13.70;93.40;;;;;;5010383;28;20505;-79
2022/06/14 02:29:30;;;;;;;6.50;2.50;;;13.70;93.50;;;;;;5009698;28;20406;-78
2022/06/14 02:32:02;;;;;;;2.25;0.95;;;13.70;93.60;;;;;;5008839;28;20033;-79
2022/06/14 02:34:32;;;;;;;3.03;1.20;;;13.70;93.60;;;;;;5009469;28;20426;-79
2022/06/14 02:37:18;;;;;;;3.38;1.00;;;13.70;93.60;;;;;;5009217;28;20495;-80
2022/06/14 02:39:54;;;;;;;4.03;1.30;;;13.70;93.60;;;;;;5008146;28;20084;-79
2022/06/14 02:42:28;;;;;;;3.15;1.10;;;13.60;93.60;;;;;;5010268;28;20041;-79
2022/06/14 02:45:04;;;;;;;4.47;1.38;;;13.60;93.80;;;;;;5025063;28;20037;-78
2022/06/14 02:47:36;;;;;;;2.17;1.33;;;13.60;93.80;;;;;;5009627;28;20026;-79
2022/06/14 02:50:32;;;;;;;3.95;1.52;;;13.60;93.80;;;;;;5011194;28;20029;-78
2022/06/14 02:53:15;;;;;;;5.63;1.23;;;13.60;93.90;;;;;;5002096;28;20033;-78
2022/06/14 02:55:46;;;;;;;;;;;13.60;94.00;;;;;;5009777;28;20037;-79
2022/06/14 02:58:42;;;;;;;3.55;1.35;;;13.60;94.20;;;;;;5002066;28;19913;-78
2022/06/14 03:01:22;;;;;;;2.63;1.40;;;13.60;94.20;;;;;;5000122;28;20045;-79
2022/06/14 03:04:02;;;;;;;3.25;0.90;;;13.50;94.40;;;;;;5016272;28;20379;-78
2022/06/14 03:06:37;;;;;;;2.58;1.33;;;13.50;94.60;;;;;;5000049;28;20042;-78
2022/06/14 03:09:14;;;;;;;4.10;1.48;;;13.50;94.60;;;;;;5010133;28;20129;-78
2022/06/14 03:12:14;;;;;;;6.72;1.10;;;13.50;94.50;;;;;;5000250;28;20129;-78
2022/06/14 03:15:09;;;;;;;4.55;1.80;;;13.50;94.60;;;;;;4999255;28;20066;-79
2022/06/14 03:17:44;;;;;;;5.80;1.60;;;13.50;94.50;;;;;;5001890;28;20037;-79
2022/06/14 03:20:41;;;;;;;2.92;1.50;;;13.50;94.50;;;;;;5008228;28;20033;-77
2022/06/14 03:23:52;;;;;;;5.07;1.20;;;13.50;94.50;;;;;;5007369;28;20040;-79
2022/06/14 03:26:53;;;;;;;3.17;1.10;;;13.50;94.60;;;;;;4999979;28;20033;-78
2022/06/14 03:29:47;;;;;;;7.53;2.10;;;13.50;94.70;;;;;;5022975;28;20037;-78
2022/06/14 03:32:21;;;;;;;5.40;1.40;;;13.50;94.70;;;;;;4995831;28;20046;-78
2022/06/14 03:35:00;;;;;;;2.38;1.13;;;13.50;94.70;;;;;;5001991;28;20430;-80
2022/06/14 03:37:25;;;;;;;3.17;1.10;;;13.50;94.80;;;;;;5000950;28;20034;-79
2022/06/14 03:39:56;;;;;;;3.47;1.50;;;13.50;94.80;;;;;;5001813;28;20662;-78
2022/06/14 03:42:22;;;;;;;3.13;1.67;;;13.50;94.90;;;;;;5003100;28;20038;-81
2022/06/14 03:44:48;;;;;;;4.20;1.48;;;13.60;94.90;;;;;;4998783;28;20045;-78
2022/06/14 03:47:14;;;;;;;2.70;1.60;;;13.50;95.00;;;;;;5007662;28;20053;-79
2022/06/14 03:49:47;;;;;;;6.63;2.35;;;13.60;95.00;;;;;;5009252;28;20049;-80
2022/06/14 03:52:24;;;;;;;3.13;1.63;;;13.60;95.00;;;;;;5010962;28;20022;-79
2022/06/14 03:55:07;;;;;;;2.13;1.45;;;13.60;95.00;;;;;;5010864;28;20026;-78
2022/06/14 03:57:46;;;;;;;2.03;1.30;;;13.60;94.90;;;;;;5007701;28;20034;-79
2022/06/14 04:00:36;;;;;;;2.70;1.23;;;13.60;95.00;;;;;;5008717;28;20038;-78
2022/06/14 04:03:07;;;;;;;2.83;1.10;;;13.60;95.00;;;;;;5009014;28;20026;-79
2022/06/14 04:05:45;;;;;;;6.65;1.38;;;13.70;94.90;;;;;;5001399;28;20038;-78
2022/06/14 04:08:35;;;;;;;6.50;1.52;;;13.70;94.90;;;;;;5007571;28;20040;-78
2022/06/14 04:11:29;;;;;;;3.78;1.33;;;13.70;94.90;;;;;;5012012;28;20038;-77
2022/06/14 04:14:20;;;;;;;8.00;1.65;;;13.80;94.90;;;;;;5003620;28;20034;-79
2022/06/14 04:16:53;;;;;;;2.60;1.30;;;13.80;94.90;;;;;;4990020;28;20046;-79
2022/06/14 04:19:54;;;;;;;4.90;1.40;;;13.80;94.80;;;;;;5014525;28;20033;-79
2022/06/14 04:22:35;;;;;;;9.75;1.58;;;13.80;94.70;;;;;;5029574;28;20440;-78
2022/06/14 04:25:18;;;;;;;2.92;1.35;;;13.90;94.80;;;;;;5010313;28;20084;-81
2022/06/14 04:27:57;;;;;;;5.13;1.33;;;14.00;94.80;;;;;;5000909;28;20030;-79
2022/06/14 04:30:35;;;;;;;4.40;2.22;;;14.10;94.90;;;;;;5012865;28;20041;-79
2022/06/14 04:33:15;;;;;;;5.60;1.65;;;14.20;94.50;;;;;;5022682;28;20422;-80
2022/06/14 04:35:50;;;;;;;2.40;1.25;;;14.30;94.40;;;;;;5012520;28;20532;-80
2022/06/14 04:38:28;;;;;;;2.78;1.35;;;14.40;93.80;;;;;;5024094;28;20073;-80
2022/06/14 04:41:10;;;;;;;3.65;1.73;;;14.40;93.80;;;;;;5006624;28;20125;-79
2022/06/14 04:43:39;;;;;;;;;;;14.50;93.80;;;;;;5007162;28;20030;-79
2022/06/14 04:46:14;;;;;;;4.32;1.25;;;14.50;93.50;;;;;;5020565;28;19909;-80
2022/06/14 04:48:51;;;;;;;6.07;1.45;;;14.50;93.40;;;;;;5007137;28;20387;-80
2022/06/14 04:51:29;;;;;;;1.35;1.00;;;14.50;93.50;;;;;;5007699;28;20034;-80
2022/06/14 04:54:03;;;;;;;4.32;1.45;;;14.50;93.40;;;;;;5009767;28;20050;-81
2022/06/14 04:56:36;;;;;;;2.35;1.13;;;14.60;93.60;;;;;;5023701;28;20038;-79
2022/06/14 04:59:11;;;;;;;4.18;1.80;;;14.60;93.00;;;;;;5008798;28;20034;-79
2022/06/14 05:01:46;;;;;;;3.75;1.20;;;14.70;92.60;;;;;;5009807;28;20029;-77
2022/06/14 05:04:21;;;;;;;3.38;1.55;;;14.70;92.50;;;;;;5010925;28;20386;-81
2022/06/14 05:06:54;;;;;;;6.40;1.23;;;14.80;92.20;;;;;;5011563;28;20034;-78
2022/06/14 05:09:28;;;;;;;2.72;0.93;;;14.80;92.00;;;;;;5012492;28;20080;-78
2022/06/14 05:12:28;;;;;;;6.85;1.50;;;14.90;92.00;;;;;;5011350;28;20030;-78
2022/06/14 05:15:07;;;;;;;3.08;1.33;;;15.00;91.90;;;;;;5025777;28;20056;-78
2022/06/14 05:17:47;;;;;;;7.75;1.55;;;15.00;91.20;;;;;;5004212;28;20496;-77
2022/06/14 05:20:15;;;;;;;3.38;1.38;;;15.00;91.40;;;;;;5008419;28;20038;-78
2022/06/14 05:22:50;;;;;;;5.82;1.45;;;15.10;91.30;;;;;;5025450;28;20065;-81
2022/06/14 05:25:16;;;;;;;3.15;1.30;;;15.10;91.70;;;;;;5009116;28;20104;-78
2022/06/14 05:27:50;;;;;;;2.50;1.08;;;15.20;91.60;;;;;;5026386;28;20474;-79
2022/06/14 05:30:53;;;;;;;2.50;1.00;;;15.30;91.10;;;;;;5006790;28;20038;-78
2022/06/14 05:33:38;;;;;;;1.60;0.93;;;15.30;91.10;;;;;;5007841;28;20030;-79
2022/06/14 05:36:24;;;;;;;4.97;1.20;;;15.40;91.00;;;;;;5007681;28;20030;-79
2022/06/14 05:39:18;;;;;;;3.88;1.42;;;15.40;90.50;;;;;;5010872;28;20129;-79
2022/06/14 05:41:53;;;;;;;3.40;1.10;;;15.40;90.50;;;;;;5018779;28;20121;-78
2022/06/14 05:44:36;;;;;;;3.80;1.17;;;15.50;90.60;;;;;;5008978;28;20053;-77
2022/06/14 05:47:10;;;;;;;3.63;1.30;;;15.60;90.40;;;;;;5011340;28;20021;-77
2022/06/14 05:49:40;;;;;;;3.38;0.95;;;15.70;90.70;;;;;;5026990;28;20026;-77
2022/06/14 05:52:21;;;;;;;3.67;1.38;;;15.70;90.40;;;;;;4992906;28;20130;-78
2022/06/14 05:54:57;;;;;;;3.80;1.20;;;15.80;90.20;;;;;;4992013;28;20127;-78
2022/06/14 05:57:34;;;;;;;6.47;1.40;;;15.80;90.60;;;;;;5007438;28;20376;-77
2022/06/14 06:00:11;;;;;;;2.25;1.45;;;15.90;90.60;;;;;;4992528;28;20487;-77
2022/06/14 06:02:47;;;;;;;2.40;1.15;;;15.90;90.80;;;;;;4992143;28;20049;-77
2022/06/14 06:05:15;;;;;;;2.20;0.80;;;16.00;90.30;;;;;;5009535;28;20109;-78
2022/06/14 06:08:08;;;;;;;4.68;1.17;;;16.10;88.90;;;;;;5011685;28;20542;-78
2022/06/14 06:10:36;;;;;;;;;;;16.10;87.50;;;;;;5011895;28;20060;-77
2022/06/14 06:13:14;;;;;;;5.38;1.25;;;16.20;87.10;;;;;;5011203;28;19905;-78
2022/06/14 06:15:43;;;;;;;3.65;0.90;;;16.20;87.70;;;;;;5009458;28;20053;-77
2022/06/14 06:18:19;;;;;;;4.40;1.25;;;16.30;87.70;;;;;;5011799;28;20026;-78
2022/06/14 06:21:02;;;;;;;4.55;1.10;;;16.30;86.80;;;;;;5011204;28;20124;-78
2022/06/14 06:24:00;;;;;;;2.58;0.70;;;16.30;86.50;;;;;;5012297;28;20033;-78
2022/06/14 06:26:30;;;;;;;3.55;1.08;;;16.30;88.10;;;;;;4998914;28;20041;-78
2022/06/14 06:29:03;;;;;;;2.47;0.70;;;16.40;86.10;;;;;;5011559;28;20030;-78
2022/06/14 06:31:34;;;;;;;3.60;0.95;;;16.50;86.50;;;;;;5011743;28;20038;-78
2022/06/14 06:34:04;;;;;;;2.47;0.80;;;16.60;86.70;;;;;;5011235;28;20116;-78
2022/06/14 06:36:47;;;;;;;3.95;1.00;;;16.70;86.60;;;;;;5011028;28;20112;-77
2022/06/14 06:39:25;;;;;;;3.10;0.95;;;16.80;87.20;;;;;;5011386;28;20072;-78
2022/06/14 06:41:56;;;;;;;3.55;1.02;;;16.90;86.40;;;;;;5011234;28;20038;-78
2022/06/14 06:44:47;;;;;;;4.38;0.82;;;16.90;85.60;;;;;;5011412;28;20057;-77
2022/06/14 06:47:26;;;;;;;3.63;1.05;;;17.00;85.40;;;;;;5010481;28;20029;-78
2022/06/14 06:50:08;;;;;;;4.20;1.05;;;17.00;83.80;;;;;;5011574;28;20025;-77
2022/06/14 06:52:58;;;;;;;2.83;0.80;;;17.00;84.50;;;;;;5011442;28;20053;-77
2022/06/14 06:55:44;;;;;;;4.32;1.17;;;17.10;85.40;;;;;;5009197;28;20038;-78
2022/06/14 06:58:29;;;;;;;1.70;0.65;;;17.10;84.70;;;;;;5010322;28;20497;-77
2022/06/14 07:00:57;;;;;;;4.68;0.82;;;17.20;83.60;;;;;;5011010;28;20053;-78
2022/06/14 07:03:46;;;;;;;2.80;0.93;;;17.20;83.70;;;;;;5011657;28;20034;-77
2022/06/14 07:06:19;;;;;;;7.25;1.10;;;17.30;82.20;;;;;;5011115;28;20053;-78
2022/06/14 07:08:52;;;;;;;;;;;17.30;82.30;;;;;;5029435;28;20418;-78
2022/06/14 07:11:22;;;;;;;3.80;0.63;;;17.30;81.50;;;;;;5011943;28;19909;-78
2022/06/14 07:13:52;;;;;;;5.78;0.88;;;17.40;83.30;;;;;;5012482;28;20061;-78
2022/06/14 07:16:30;;;;;;;2.75;0.90;;;17.40;80.80;;;;;;5011440;28;20137;-78
2022/06/14 07:19:20;;;;;;;1.85;0.88;;;17.40;81.60;;;;;;5010504;28;20092;-77
2022/06/14 07:21:57;;;;;;;2.55;0.90;;;17.50;81.30;;;;;;5010081;28;20534;-77
2022/06/14 07:24:29;;;;;;;2.05;0.70;;;17.60;80.50;;;;;;5011011;28;20052;-78
2022/06/14 07:27:03;;;;;;;3.97;0.65;;;17.70;80.00;;;;;;5010107;28;20026;-77
2022/06/14 07:29:37;;;;;;;2.65;0.80;;;17.90;80.70;;;;;;5011010;28;20030;-78
2022/06/14 07:32:11;;;;;;;5.00;1.17;;;18.00;81.20;;;;;;5010572;28;20028;-77
2022/06/14 07:34:39;;;;;;;5.32;0.70;;;18.10;80.40;;;;;;5010495;28;20053;-77
2022/06/14 07:37:10;;;;;;;4.15;0.73;;;18.40;80.40;;;;;;5010010;28;20038;-77
2022/06/14 07:39:57;;;;;;;7.45;0.90;;;18.60;78.50;;;;;;5010102;28;20060;-77
2022/06/14 07:42:36;;;;;;;2.63;0.60;;;18.90;78.00;;;;;;5010648;28;20025;-78
2022/06/14 07:45:20;;;;;;;5.40;1.20;;;19.10;75.00;;;;;;5010687;28;20080;-77
2022/06/14 07:48:01;;;;;;;2.85;1.00;;;19.10;74.70;;;;;;5010184;28;20022;-77
2022/06/14 07:50:27;;;;;;;2.13;0.87;;;18.90;74.60;;;;;;5010775;28;20025;-77
2022/06/14 07:53:05;;;;;;;3.13;0.80;;;18.60;75.20;;;;;;5009633;28;20044;-77
2022/06/14 07:55:43;;;;;;;4.50;1.08;;;18.70;75.80;;;;;;5009842;28;20026;-77
2022/06/14 07:58:22;;;;;;;5.45;0.70;;;18.60;75.90;;;;;;5010225;28;20463;-77
2022/06/14 08:01:09;;;;;;;3.72;0.88;;;18.50;77.30;;;;;;5010122;28;20653;-77
2022/06/14 08:04:09;;;;;;;2.03;0.70;;;18.50;76.80;;;;;;5010149;28;20034;-77
2022/06/14 08:06:46;;;;;;;2.35;0.57;;;18.60;76.20;;;;;;5009700;28;20037;-77
2022/06/14 08:09:40;;;;;;;6.18;0.90;;;18.60;75.90;;;;;;5010334;28;20034;-77
2022/06/14 08:12:15;;;;;;;6.03;0.65;;;18.60;77.90;;;;;;5010031;28;20033;-77
2022/06/14 08:14:58;;;;;;;5.95;0.82;;;18.80;75.30;;;;;;5025303;28;20482;-77
2022/06/14 08:17:54;;;;;;;1.60;0.52;;;18.90;75.60;;;;;;5009622;28;20080;-78
2022/06/14 08:20:28;;;;;;;3.65;0.93;;;19.10;78.90;;;;;;5010329;28;20029;-77
2022/06/14 08:23:04;;;;;;;7.68;1.20;;;19.30;75.40;;;;;;5009523;28;20137;-77
2022/06/14 08:25:33;;;;;;;4.03;0.88;;;19.50;75.50;;;;;;5009459;28;20034;-77
2022/06/14 08:28:06;;;;;;;2.92;0.80;;;19.50;74.70;;;;;;5010202;28;20144;-78
2022/06/14 08:30:39;;;;;;;4.03;1.00;;;19.60;75.20;;;;;;5010054;28;20053;-77
2022/06/14 08:33:13;;;;;;;3.25;1.08;;;19.60;75.10;;;;;;5009445;28;20025;-77
2022/06/14 08:35:52;;;;;;;4.20;0.95;;;19.50;74.50;;;;;;5012375;28;20066;-77
2022/06/14 08:38:32;;;;;;;4.38;0.90;;;19.40;75.20;;;;;;5013980;28;20034;-77
2022/06/14 08:41:46;;;;;;;3.58;1.00;;;19.30;76.70;;;;;;5013368;28;20108;-77
2022/06/14 08:44:19;;;;;;;5.15;0.90;;;19.30;76.20;;;;;;5028974;28;20372;-78
2022/06/14 08:47:00;;;;;;;4.43;1.13;;;19.40;78.30;;;;;;5012903;28;20088;-78
2022/06/14 08:49:48;;;;;;;2.83;0.88;;;19.30;76.20;;;;;;5013251;28;20033;-77
2022/06/14 08:53:00;;;;;;;4.65;0.93;;;19.40;75.10;;;;;;5013399;28;20029;-77
2022/06/14 08:56:18;;;;;;;4.30;1.10;;;19.50;75.10;;;;;;5012915;28;20030;-77
2022/06/14 08:59:17;;;;;;;2.45;0.60;;;19.70;76.30;;;;;;4976503;28;20635;-77
2022/06/14 09:02:22;;;;;;;4.88;1.42;;;19.90;75.10;;;;;;5013111;28;20038;-78
2022/06/14 09:05:06;;;;;;;6.82;1.27;;;20.10;73.60;;;;;;5013072;28;20033;-77
2022/06/14 09:07:53;;;;;;;3.65;0.80;;;20.10;74.00;;;;;;5012790;28;20033;-76
2022/06/14 09:10:43;;;;;;;3.38;0.80;;;20.20;74.20;;;;;;5013123;28;20038;-77
2022/06/14 09:13:19;;;;;;;2.78;0.65;;;20.30;71.80;;;;;;5013032;28;20018;-77
2022/06/14 09:16:21;;;;;;;4.97;0.82;;;20.40;71.20;;;;;;5012504;28;20022;-77
2022/06/14 09:18:56;;;;;;;2.00;0.63;;;20.20;71.60;;;;;;5013189;28;20037;-77
2022/06/14 09:21:34;;;;;;;5.43;0.95;;;20.10;71.90;;;;;;5012706;28;20033;-77
2022/06/14 09:24:30;;;;;;;3.72;0.82;;;20.00;72.30;;;;;;5013087;28;20029;-78
2022/06/14 09:27:06;;;;;;;12.88;1.70;;;20.30;73.60;;;;;;5011718;28;20097;-77
2022/06/14 09:29:38;;;;;;;5.50;1.30;;;20.60;71.80;;;;;;5013049;28;20026;-77
2022/06/14 09:35:53;;;;;;;4.10;0.70;;;21.30;69.30;;;;;;5012286;28;20029;-77
2022/06/14 09:38:50;;;;;;;3.35;0.80;;;21.70;67.20;;;;;;5012792;28;20057;-77
2022/06/14 09:41:34;;;;;;;3.72;0.65;;;21.70;67.80;;;;;;5012403;28;20041;-78
2022/06/14 09:44:26;;;;;;;5.03;0.80;;;21.70;68.70;;;;;;5012130;28;20026;-76
2022/06/14 09:47:13;;;;;;;4.18;1.20;;;21.70;71.20;;;;;;5011851;28;20029;-78
2022/06/14 09:50:30;;;;;;;2.83;0.70;;;21.50;69.60;;;;;;5012404;28;20029;-77
2022/06/14 09:53:10;;;;;;;1.42;0.50;;;21.40;69.80;;;;;;5012210;28;20084;-78
2022/06/14 09:55:50;;;;;;;2.97;0.88;;;21.60;66.80;;;;;;5009614;28;20467;-78
2022/06/14 09:58:38;;;;;;;4.82;1.00;;;21.90;66.40;;;;;;5012982;28;20380;-77
2022/06/14 10:01:15;;;;;;;4.22;0.95;;;22.10;65.80;;;;;;5008778;28;20049;-77
2022/06/14 10:03:53;;;;;;;3.97;0.60;;;22.10;66.90;;;;;;5009431;28;20053;-78
2022/06/14 10:06:37;;;;;;;1.60;0.55;;;22.10;67.00;;;;;;5010848;28;20501;-77
2022/06/14 10:09:26;;;;;;;3.75;0.65;;;22.00;65.00;;;;;;5012172;28;20045;-78
2022/06/14 10:12:18;;;;;;;2.55;0.50;;;22.10;63.60;;;;;;5009753;28;20029;-78
2022/06/14 10:14:53;;;;;;;3.15;0.60;;;22.10;63.70;;;;;;5004304;28;20033;-78
2022/06/14 10:17:32;;;;;;;2.85;0.82;;;21.80;64.50;;;;;;5009247;28;20031;-78
2022/06/14 10:20:29;;;;;;;2.45;0.80;;;21.50;65.50;;;;;;5011555;28;20756;-78
2022/06/14 10:23:13;;;;;;;3.55;1.00;;;21.40;66.30;;;;;;5010927;28;20038;-78
2022/06/14 10:29:10;;;;;;;3.28;1.10;;;21.30;66.00;;;;;;5007005;28;20092;-79
2022/06/14 10:31:56;;;;;;;3.13;0.80;;;21.20;67.10;;;;;;4992995;28;20050;-78
2022/06/14 10:35:00;;;;;;;4.50;1.27;;;21.20;68.00;;;;;;5007970;28;20026;-78
2022/06/14 10:37:43;;;;;;;1.42;0.65;;;21.30;67.20;;;;;;5010740;28;20454;-78
2022/06/14 10:40:37;;;;;;;3.03;0.77;;;21.50;67.10;;;;;;5009565;28;20037;-79
2022/06/14 10:43:18;;;;;;;6.05;1.20;;;21.50;65.60;;;;;;5009441;28;20069;-79
2022/06/14 10:46:17;;;;;;;2.58;1.08;;;21.70;65.80;;;;;;5023374;28;20030;-79
2022/06/14 10:49:07;;;;;;;5.43;0.75;;;22.00;65.80;;;;;;5011243;28;20033;-80
2022/06/14 10:51:54;;;;;;;3.70;0.77;;;22.20;66.00;;;;;;5011074;28;20026;-78
2022/06/14 10:54:47;;;;;;;3.00;0.52;;;22.40;62.10;;;;;;5017404;28;20034;-79
2022/06/14 10:57:26;;;;;;;3.88;0.98;;;22.50;61.00;;;;;;5000179;28;20033;-78
2022/06/14 11:00:11;;;;;;;2.30;0.60;;;22.70;63.00;;;;;;5004186;28;20065;-78
2022/06/14 11:02:49;;;;;;;6.50;1.10;;;22.60;62.50;;;;;;5010237;28;20496;-78
2022/06/14 11:05:33;;;;;;;3.38;0.98;;;22.70;63.50;;;;;;5010989;28;20034;-79
2022/06/14 11:08:24;;;;;;;2.08;0.40;;;22.50;61.40;;;;;;5011812;28;20030;-78
2022/06/14 11:11:15;;;;;;;3.05;0.68;;;22.30;61.90;;;;;;5008981;28;20026;-78
2022/06/14 11:14:05;;;;;;;3.83;0.88;;;22.10;65.90;;;;;;4994760;28;20096;-79
2022/06/14 11:16:56;;;;;;;5.07;0.95;;;22.30;62.40;;;;;;5008895;28;20036;-78
2022/06/14 11:19:37;;;;;;;1.67;1.05;;;22.50;63.70;;;;;;5016749;28;20079;-80
2022/06/14 11:22:17;;;;;;;2.63;0.63;;;22.70;59.80;;;;;;5016487;28;20749;-79
2022/06/14 11:24:54;;;;;;;2.60;0.93;;;22.80;60.60;;;;;;5004348;28;20034;-80
2022/06/14 11:27:43;;;;;;;3.28;0.60;;;23.10;62.40;;;;;;5026117;28;20032;-78
2022/06/14 11:30:35;;;;;;;1.73;0.70;;;23.10;62.00;;;;;;5015703;28;20041;-79
2022/06/14 11:33:06;;;;;;;5.30;0.68;;;23.40;60.60;;;;;;5000955;28;20049;-78
2022/06/14 11:36:08;;;;;;;3.03;0.65;;;23.60;59.30;;;;;;5011221;28;20092;-79
2022/06/14 11:38:59;;;;;;;3.53;0.77;;;23.70;58.10;;;;;;5012025;28;20048;-79
2022/06/14 11:41:29;;;;;;;3.72;0.82;;;23.70;58.20;;;;;;5009613;28;20041;-79
2022/06/14 11:44:06;;;;;;;3.72;0.73;;;23.70;59.10;;;;;;5009849;28;20058;-80
2022/06/14 11:46:45;;;;;;;2.42;0.60;;;23.90;59.10;;;;;;5002585;28;20053;-79
2022/06/14 11:49:27;;;;;;;2.53;0.75;;;24.00;59.60;;;;;;5004743;28;20041;-79
2022/06/14 11:51:58;;;;;;;4.18;0.80;;;24.10;59.80;;;;;;5009780;28;20784;-79
2022/06/14 11:54:28;;;;;;;4.78;0.90;;;24.20;58.30;;;;;;5011120;28;20030;-80
2022/06/14 11:57:14;;;;;;;2.95;0.60;;;24.30;58.20;;;;;;5009805;28;20046;-79
2022/06/14 12:00:06;;;;;;;2.25;0.60;;;24.50;57.90;;;;;;5010464;28;20045;-80
2022/06/14 12:02:56;;;;;;;3.25;1.27;;;24.50;58.00;;;;;;5009943;28;20105;-80
2022/06/14 12:05:38;;;;;;;5.50;0.90;;;24.40;57.40;;;;;;5010303;28;20022;-81
2022/06/14 12:08:35;;;;;;;2.40;0.60;;;24.40;57.60;;;;;;5010533;28;20026;-80
2022/06/14 12:11:22;;;;;;;3.58;0.50;;;24.40;60.20;;;;;;5016491;28;20138;-79
2022/06/14 12:14:01;;;;;;;2.33;0.65;;;24.60;58.80;;;;;;5007784;28;20037;-80
2022/06/14 12:16:42;;;;;;;4.28;0.70;;;24.80;58.80;;;;;;5013869;28;20029;-80
2022/06/14 12:19:13;;;;;;;2.05;0.45;;;24.80;58.80;;;;;;5007649;28;20030;-79
2022/06/14 12:21:50;;;;;;;2.63;0.63;;;24.80;56.60;;;;;;5012551;28;20113;-79
2022/06/14 12:24:22;;;;;;;2.00;0.60;;;24.80;56.20;;;;;;5010048;28;20037;-78
2022/06/14 12:26:55;;;;;;;2.83;0.75;;;24.60;57.20;;;;;;5013297;28;20117;-80
2022/06/14 12:29:37;;;;;;;3.95;1.35;;;24.40;57.90;;;;;;5019358;28;20094;-79
2022/06/14 12:32:12;;;;;;;3.10;0.80;;;24.30;57.40;;;;;;5015525;28;20367;-80
2022/06/14 12:34:47;;;;;;;2.45;1.10;;;24.30;59.30;;;;;;5017528;28;20038;-79
2022/06/14 12:37:32;;;;;;;7.35;0.90;;;24.50;56.60;;;;;;5015589;28;20121;-80
2022/06/14 12:40:01;;;;;;;2.75;0.60;;;24.70;57.50;;;;;;5014206;28;20065;-80
2022/06/14 12:42:45;;;;;;;1.88;0.70;;;24.90;55.90;;;;;;5013831;28;20463;-80
2022/06/14 12:45:21;;;;;;;2.80;0.60;;;25.20;55.20;;;;;;5013497;28;20041;-80
2022/06/14 12:48:12;;;;;;;3.75;0.73;;;25.10;57.50;;;;;;5011648;28;20026;-80
2022/06/14 12:50:46;;;;;;;2.90;1.00;;;25.30;58.20;;;;;;5004311;28;20037;-80
2022/06/14 12:53:19;;;;;;;2.95;0.65;;;25.40;55.70;;;;;;5025343;28;20053;-80
2022/06/14 12:55:53;;;;;;;4.35;0.80;;;25.40;56.30;;;;;;5015276;28;20034;-80
2022/06/14 12:58:27;;;;;;;2.60;0.73;;;25.50;56.20;;;;;;5014203;28;20038;-79
2022/06/14 13:01:19;;;;;;;2.58;0.50;;;25.60;54.40;;;;;;5014710;28;20056;-79
2022/06/14 13:03:54;;;;;;;3.60;0.80;;;25.60;54.70;;;;;;5014395;28;20026;-79
2022/06/14 13:06:56;;;;;;;0.63;0.40;;;25.60;55.80;;;;;;5013980;28;20032;-79
2022/06/14 13:09:50;;;;;;;2.53;0.50;;;25.60;57.10;;;;;;5013512;28;20415;-80
2022/06/14 13:12:51;;;;;;;1.88;0.68;;;25.80;55.50;;;;;;5011132;28;20042;-80
2022/06/14 13:15:19;;;;;;;3.47;0.88;;;26.00;55.50;;;;;;5009775;28;20053;-80
2022/06/14 13:17:57;;;;;;;2.28;0.60;;;26.10;56.40;;;;;;5012462;28;20029;-80
2022/06/14 13:20:41;;;;;;;1.67;0.57;;;26.40;56.20;;;;;;5011918;28;20037;-80
2022/06/14 13:23:28;;;;;;;2.78;0.75;;;26.60;54.70;;;;;;5010506;28;20046;-79
2022/06/14 13:26:35;;;;;;;2.25;0.57;;;26.80;54.40;;;;;;5010963;28;20076;-79
2022/06/14 13:29:20;;;;;;;4.63;0.60;;;27.00;54.40;;;;;;5013356;28;20030;-80
2022/06/14 13:32:05;;;;;;;5.72;0.60;;;27.10;53.20;;;;;;5014657;28;20022;-80
2022/06/14 13:34:46;;;;;;;2.75;0.60;;;26.90;52.10;;;;;;5013540;28;20026;-80
2022/06/14 13:37:44;;;;;;;4.50;0.80;;;26.70;52.90;;;;;;5014233;28;20030;-79
2022/06/14 13:40:12;;;;;;;2.10;0.50;;;26.60;53.00;;;;;;5024790;28;20026;-79
2022/06/14 13:42:50;;;;;;;2.05;0.60;;;26.50;53.00;;;;;;5009286;28;20105;-79
2022/06/14 13:45:38;;;;;;;3.05;0.73;;;26.40;52.20;;;;;;5014944;28;20561;-79
2022/06/14 13:48:38;;;;;;;3.22;0.55;;;26.40;53.30;;;;;;5017959;28;20076;-80
2022/06/14 13:51:14;;;;;;;3.25;0.80;;;26.50;53.10;;;;;;5028773;28;20095;-78
2022/06/14 13:53:48;;;;;;;3.10;0.80;;;26.30;53.80;;;;;;5013899;28;20048;-78
2022/06/14 13:56:41;;;;;;;4.63;1.20;;;26.00;52.40;;;;;;5013225;28;20518;-79
2022/06/14 13:59:31;;;;;;;4.43;0.52;;;25.80;53.70;;;;;;5010538;28;20475;-80
2022/06/14 14:02:02;;;;;;;2.45;0.60;;;25.70;53.60;;;;;;5018281;28;20718;-80
2022/06/14 14:04:51;;;;;;;1.88;0.65;;;25.80;54.40;;;;;;5012488;28;20026;-80
2022/06/14 14:07:29;;;;;;;2.50;0.60;;;25.90;52.40;;;;;;5011650;28;20030;-80